»·PEaware :: N96DC KSAN-KLAX

N96DC :: KSAN-KLAX

FLIGHT INFORMATION

Flight Status: Arrived
Operator: Privately registered:
United States
More flights under this callsign
Pilot: Jim H. (16858)
Aircraft: Unknown
(PIPA)
More flights by this aircraft type
Origin: KSAN San Diego Intl-Lindbergh
United States
Destination: KLAX Los Angeles Intl
United States
More flights between these airports :: More routes between these airports
Route: +OCN V23 SLI
File this flight plan on PilotEdge
Remarks: Sample flight plan
Altitude:
(Current/Filed)
4,000ft
Speed:
(Current/Filed)
170kts
Departed: 03-Jan-18 12:16 PM
Arrived: 03-Jan-18 12:57 PM
Distance/Time
Traveled:
94nm/0:41
Distance/Time
To Go:
Arrived

Flight Plot

Page will automatically refresh every two minutes.


Map Options




Map Legend


Flown Route
Filed Route
Departure Airport
Arrival Airport
Navaid (VOR, NDB)
Fix

Horizontal Profiles

Position Reports

Time Latitude Longitude Heading Altitude Ground
Speed
03-Jan-18 12:03 32.732420 -117.176641 194 21ft 0kts
03-Jan-18 12:04 32.732420 -117.176641 193 21ft 0kts
03-Jan-18 12:05 32.732420 -117.176641 193 21ft 0kts
03-Jan-18 12:06 32.732420 -117.176641 193 21ft 0kts
03-Jan-18 12:07 32.732420 -117.176641 193 21ft 0kts
03-Jan-18 12:08 32.732420 -117.176641 193 21ft 0kts
03-Jan-18 12:09 32.732420 -117.176641 193 21ft 0kts
03-Jan-18 12:10 32.732420 -117.176641 193 21ft 0kts
03-Jan-18 12:11 32.732420 -117.176641 193 21ft 0kts
03-Jan-18 12:12 32.732420 -117.176641 193 21ft 0kts
03-Jan-18 12:13 32.732420 -117.176641 193 21ft 0kts
03-Jan-18 12:14 32.732420 -117.176641 193 21ft 0kts
03-Jan-18 12:15 32.732420 -117.176641 193 21ft 0kts
03-Jan-18 12:16 32.732420 -117.176641 193 21ft 0kts
03-Jan-18 12:17 32.732060 -117.176536 147 21ft 2kts
03-Jan-18 12:18 32.731622 -117.176107 137 21ft 4kts
03-Jan-18 12:19 32.731025 -117.175549 144 21ft 0kts
03-Jan-18 12:20 32.731025 -117.175549 144 21ft 0kts
03-Jan-18 12:21 32.730472 -117.175243 179 20ft 4kts
03-Jan-18 12:22 32.733880 -117.190973 288 375ft 109kts
03-Jan-18 12:23 32.756875 -117.221526 321 1651ft 151kts
03-Jan-18 12:24 32.795321 -117.258135 321 1888ft 199kts
03-Jan-18 12:25 32.839646 -117.300119 321 1845ft 206kts
03-Jan-18 12:26 32.881766 -117.340047 321 1851ft 188kts
03-Jan-18 12:27 32.921968 -117.378144 321 1848ft 184kts
03-Jan-18 12:28 32.961902 -117.415980 321 1844ft 182kts
03-Jan-18 12:29 33.001277 -117.453281 321 1844ft 181kts
03-Jan-18 12:30 33.048659 -117.452717 12 2022ft 177kts
03-Jan-18 12:31 33.095597 -117.441844 9 3238ft 163kts
03-Jan-18 12:32 33.137009 -117.433905 7 4742ft 146kts
03-Jan-18 12:33 33.176592 -117.427714 7 5833ft 159kts
03-Jan-18 12:34 33.222316 -117.421101 6 5844ft 172kts
03-Jan-18 12:35 33.261422 -117.445569 317 5844ft 173kts
03-Jan-18 12:36 33.295870 -117.483992 316 5844ft 173kts
03-Jan-18 12:37 33.330123 -117.522502 317 5844ft 173kts
03-Jan-18 12:38 33.363941 -117.561457 316 5844ft 173kts
03-Jan-18 12:39 33.397436 -117.600539 316 5844ft 173kts
03-Jan-18 12:40 33.431084 -117.639873 316 5859ft 173kts
03-Jan-18 12:41 33.464364 -117.678844 315 5881ft 173kts
03-Jan-18 12:42 33.500212 -117.715834 321 5881ft 173kts
03-Jan-18 12:43 33.536628 -117.750445 321 5881ft 174kts
03-Jan-18 12:44 33.573055 -117.785063 321 5884ft 174kts
03-Jan-18 12:45 33.609551 -117.819746 321 5891ft 175kts
03-Jan-18 12:46 33.645252 -117.853669 321 5880ft 174kts
03-Jan-18 12:47 33.681325 -117.887941 321 5880ft 174kts
03-Jan-18 12:48 33.720393 -117.925063 321 5158ft 199kts
03-Jan-18 12:49 33.762389 -117.964973 321 4447ft 204kts
03-Jan-18 12:50 33.781880 -118.026920 284 3883ft 195kts
03-Jan-18 12:51 33.822198 -118.054213 351 3892ft 179kts
03-Jan-18 12:52 33.870936 -118.062733 351 3879ft 174kts
03-Jan-18 12:53 33.918007 -118.070952 351 3889ft 175kts
03-Jan-18 12:54 33.963466 -118.078799 351 3894ft 166kts
03-Jan-18 12:55 34.001763 -118.098061 279 3887ft 166kts
03-Jan-18 12:56 33.983120 -118.139334 231 3861ft 137kts
03-Jan-18 12:57 33.956761 -118.182347 253 2965ft 184kts
03-Jan-18 12:58 33.952151 -118.238543 263 2456ft 155kts
03-Jan-18 12:59 33.947405 -118.284836 263 1748ft 144kts
03-Jan-18 13:00 33.943233 -118.325389 263 1074ft 122kts
03-Jan-18 13:01 33.939948 -118.357991 263 551ft 82kts
03-Jan-18 13:02 33.937233 -118.383791 263 114ft 75kts
03-Jan-18 13:03 33.935239 -118.391670 256 102ft 0kts

Navigation Log

Ident Type
1. KSAN Airport
2. OCN Navaid
3. KELPS Fix
4. DANAH Fix
5. KRAUZ Fix
6. BALBO Fix
7. MIDDS Fix
8. SLI Navaid
9. KLAX Airport